Time;durP1;ratioP1;P1;durP2;ratioP2;P2;SDS_P1;SDS_P2;PMS_P1;PMS_P2;Temp;Humidity;BMP_temperature;BMP_pressure;BME280_temperature;BME280_humidity;BME280_pressure;Samples;Min_cycle;Max_cycle;Signal;HPM_P1;HPM_P2
2022/08/23 00:01:07;;;;;;;3.93;2.80;;;22.50;91.10;;;;;;4996214;28;20487;-74
2022/08/23 00:03:35;;;;;;;8.30;3.03;;;22.50;91.20;;;;;;5009705;28;20482;-71
2022/08/23 00:06:02;;;;;;;15.77;3.30;;;22.50;91.30;;;;;;5002028;28;20436;-71
2022/08/23 00:08:29;;;;;;;4.27;2.77;;;22.50;91.30;;;;;;5011052;28;20467;-72
2022/08/23 00:10:56;;;;;;;3.37;2.30;;;22.40;91.40;;;;;;5003100;28;20440;-72
2022/08/23 00:13:23;;;;;;;3.67;2.77;;;22.40;91.40;;;;;;5011510;28;20543;-74
2022/08/23 00:15:50;;;;;;;4.53;2.70;;;22.30;91.50;;;;;;5006782;28;20446;-70
2022/08/23 00:18:19;;;;;;;7.10;2.60;;;22.30;91.50;;;;;;5005541;28;20437;-73
2022/08/23 00:20:46;;;;;;;9.10;3.37;;;22.30;91.70;;;;;;5006136;28;20444;-71
2022/08/23 00:23:14;;;;;;;10.60;3.07;;;22.20;91.90;;;;;;4995609;28;20495;-72
2022/08/23 00:25:42;;;;;;;4.00;3.07;;;22.10;91.90;;;;;;5010693;28;20499;-72
2022/08/23 00:28:09;;;;;;;5.90;3.13;;;22.10;92.10;;;;;;5005203;28;20532;-73
2022/08/23 00:30:38;;;;;;;6.23;2.60;;;22.00;92.20;;;;;;5017398;28;20500;-71
2022/08/23 00:33:05;;;;;;;4.70;2.67;;;22.10;92.30;;;;;;5009102;28;20830;-70
2022/08/23 00:35:33;;;;;;;3.70;3.40;;;22.00;92.50;;;;;;4993848;28;20800;-73
2022/08/23 00:38:00;;;;;;;6.00;3.20;;;22.00;92.40;;;;;;5001471;28;20443;-73
2022/08/23 00:40:27;;;;;;;4.80;3.03;;;22.00;92.50;;;;;;5004320;28;20433;-70
2022/08/23 00:48:37;;;;;;;4.53;2.53;;;21.90;92.60;;;;;;5000363;28;20564;-72
2022/08/23 00:51:13;;;;;;;4.43;2.70;;;21.90;92.80;;;;;;4998094;28;20935;-71
2022/08/23 00:53:43;;;;;;;9.33;3.47;;;21.90;92.90;;;;;;4995324;28;20514;-71
2022/08/23 00:56:13;;;;;;;3.63;2.60;;;21.90;92.90;;;;;;4991676;28;20496;-72
2022/08/23 00:58:40;;;;;;;4.47;3.30;;;21.80;93.00;;;;;;5002709;28;20440;-71
2022/08/23 01:01:08;;;;;;;7.30;3.10;;;21.80;93.00;;;;;;4990765;28;20865;-71
2022/08/23 01:03:39;;;;;;;5.53;3.20;;;21.70;93.10;;;;;;5002108;28;20460;-71
2022/08/23 01:06:12;;;;;;;5.13;3.73;;;21.80;93.60;;;;;;5003416;28;20456;-71
2022/08/23 01:08:44;;;;;;;4.63;3.00;;;21.80;93.20;;;;;;4999159;28;20454;-72
2022/08/23 01:11:17;;;;;;;12.10;3.87;;;21.70;93.40;;;;;;4992672;28;20952;-69
2022/08/23 01:13:54;;;;;;;7.50;3.30;;;21.70;93.30;;;;;;4997457;28;20470;-73
2022/08/23 01:16:27;;;;;;;8.57;3.43;;;21.70;93.40;;;;;;4995491;28;20446;-71
2022/08/23 01:18:56;;;;;;;4.80;3.07;;;21.70;93.40;;;;;;5016018;28;20477;-73
2022/08/23 01:21:32;;;;;;;7.17;3.43;;;21.60;93.50;;;;;;4997917;28;20531;-71
2022/08/23 01:24:04;;;;;;;8.00;2.50;;;21.50;93.80;;;;;;5006373;28;20576;-72
2022/08/23 01:26:34;;;;;;;4.00;2.43;;;21.50;93.90;;;;;;5001702;28;20530;-72
2022/08/23 01:29:02;;;;;;;4.83;2.90;;;21.50;94.00;;;;;;4997610;28;20439;-74
2022/08/23 01:31:30;;;;;;;5.40;2.87;;;21.60;94.00;;;;;;4994680;28;20495;-74
2022/08/23 01:33:59;;;;;;;5.03;2.97;;;21.60;94.00;;;;;;5000875;28;20462;-70
2022/08/23 01:36:29;;;;;;;5.10;3.13;;;21.60;94.00;;;;;;5006533;28;20924;-71
2022/08/23 01:38:55;;;;;;;4.83;3.17;;;21.50;94.10;;;;;;5004284;28;20440;-71
2022/08/23 01:41:24;;;;;;;4.23;3.03;;;21.50;94.10;;;;;;5003275;28;20440;-72
2022/08/23 01:43:51;;;;;;;4.70;3.20;;;21.50;94.20;;;;;;5004442;28;20550;-73
2022/08/23 01:46:21;;;;;;;4.20;2.80;;;21.50;94.20;;;;;;5000927;28;20826;-73
2022/08/23 01:48:50;;;;;;;4.63;2.40;;;21.50;94.30;;;;;;5005944;28;20443;-73
2022/08/23 01:51:20;;;;;;;6.70;3.00;;;21.50;94.20;;;;;;4984646;28;20451;-72
2022/08/23 01:53:47;;;;;;;7.83;2.77;;;21.50;94.40;;;;;;4985750;28;20470;-73
2022/08/23 01:56:18;;;;;;;4.40;3.73;;;21.50;94.40;;;;;;4992237;28;20507;-71
2022/08/23 01:58:47;;;;;;;6.60;3.27;;;21.50;94.50;;;;;;4991144;28;20451;-71
2022/08/23 02:01:14;;;;;;;5.77;3.37;;;21.50;94.50;;;;;;4999095;28;20436;-72
2022/08/23 02:03:41;;;;;;;3.90;2.67;;;21.50;94.50;;;;;;4998560;28;20491;-73
2022/08/23 02:06:08;;;;;;;4.70;3.30;;;21.50;94.40;;;;;;5005708;28;20477;-72
2022/08/23 02:11:21;;;;;;;4.40;2.80;;;21.50;94.70;;;;;;5003101;28;20443;-71
2022/08/23 02:13:51;;;;;;;6.27;3.37;;;21.50;94.80;;;;;;4992291;28;20949;-73
2022/08/23 02:16:23;;;;;;;7.40;4.57;;;21.50;94.80;;;;;;5001910;28;20453;-71
2022/08/23 02:18:53;;;;;;;4.97;2.70;;;21.50;94.70;;;;;;4991966;28;20512;-72
2022/08/23 02:21:20;;;;;;;6.07;2.87;;;21.50;94.70;;;;;;5002133;28;20439;-71
2022/08/23 02:23:50;;;;;;;4.73;2.67;;;21.50;94.60;;;;;;4999511;28;20510;-71
2022/08/23 02:26:17;;;;;;;4.40;2.87;;;21.50;94.70;;;;;;5011290;28;20509;-73
2022/08/23 02:28:44;;;;;;;5.30;2.67;;;21.50;94.70;;;;;;4994963;28;20536;-70
2022/08/23 02:31:13;;;;;;;5.30;3.00;;;21.40;94.80;;;;;;4995455;28;20444;-70
2022/08/23 02:33:40;;;;;;;7.63;3.10;;;21.40;94.90;;;;;;4985404;28;20998;-71
2022/08/23 02:36:07;;;;;;;3.73;3.20;;;21.40;94.90;;;;;;4997694;28;20533;-72
2022/08/23 02:38:34;;;;;;;3.10;2.80;;;21.40;95.00;;;;;;4997668;28;20434;-72
2022/08/23 02:41:01;;;;;;;5.47;3.07;;;21.40;94.90;;;;;;4994683;28;20450;-73
2022/08/23 02:43:28;;;;;;;5.43;3.00;;;21.40;94.80;;;;;;5006868;28;20479;-71
2022/08/23 02:45:55;;;;;;;5.90;2.97;;;21.40;94.80;;;;;;5000974;28;20452;-70
2022/08/23 02:48:24;;;;;;;6.87;2.87;;;21.40;94.80;;;;;;4994182;28;20445;-73
2022/08/23 02:50:51;;;;;;;5.83;3.07;;;21.40;95.00;;;;;;5006549;28;20522;-71
2022/08/23 02:53:19;;;;;;;6.33;2.90;;;21.50;95.00;;;;;;5001938;28;20465;-71
2022/08/23 02:55:46;;;;;;;3.73;2.90;;;21.40;94.90;;;;;;5010458;28;20500;-72
2022/08/23 02:58:13;;;;;;;5.23;3.30;;;21.40;94.90;;;;;;4998760;28;20440;-73
2022/08/23 03:00:40;;;;;;;7.20;2.90;;;21.30;95.00;;;;;;5001114;28;20434;-72
2022/08/23 03:03:06;;;;;;;4.30;2.70;;;21.40;94.90;;;;;;4986145;28;20841;-72
2022/08/23 03:05:35;;;;;;;4.40;2.83;;;21.50;94.90;;;;;;5005331;28;20436;-72
2022/08/23 03:08:02;;;;;;;4.03;2.67;;;21.40;94.80;;;;;;5002734;28;20912;-74
2022/08/23 03:10:29;;;;;;;7.73;2.80;;;21.40;94.90;;;;;;5007255;28;20519;-72
2022/08/23 03:12:56;;;;;;;8.23;3.93;;;21.40;95.00;;;;;;4998660;28;20467;-70
2022/08/23 03:15:23;;;;;;;7.80;3.20;;;21.40;95.00;;;;;;5009701;28;20443;-73
2022/08/23 03:17:50;;;;;;;6.40;3.33;;;21.40;95.00;;;;;;5007337;28;20909;-74
2022/08/23 03:20:19;;;;;;;4.23;3.30;;;21.40;95.10;;;;;;5002696;28;20575;-73
2022/08/23 03:22:47;;;;;;;9.37;3.63;;;21.30;95.30;;;;;;5001224;28;20474;-71
2022/08/23 03:25:16;;;;;;;6.50;3.10;;;21.30;95.30;;;;;;5006299;28;20454;-72
2022/08/23 03:27:43;;;;;;;6.57;3.60;;;21.30;95.40;;;;;;4995631;28;20942;-71
2022/08/23 03:30:11;;;;;;;6.33;3.30;;;21.20;95.40;;;;;;5000037;28;20445;-71
2022/08/23 03:32:38;;;;;;;5.30;3.03;;;21.10;95.50;;;;;;4983065;28;20796;-70
2022/08/23 03:35:06;;;;;;;4.63;2.77;;;21.20;95.60;;;;;;4994439;28;20440;-74
2022/08/23 03:37:33;;;;;;;6.93;3.63;;;21.20;95.60;;;;;;4998945;28;20449;-72
2022/08/23 03:40:01;;;;;;;4.80;3.10;;;21.20;95.60;;;;;;4996845;28;20437;-72
2022/08/23 03:42:28;;;;;;;7.90;3.63;;;21.20;95.70;;;;;;4994859;28;20474;-73
2022/08/23 03:44:55;;;;;;;7.43;2.93;;;21.10;95.80;;;;;;5001830;28;20467;-73
2022/08/23 03:47:22;;;;;;;6.13;3.57;;;21.10;95.80;;;;;;4994811;28;20874;-74
2022/08/23 03:49:49;;;;;;;5.60;3.20;;;21.10;96.00;;;;;;4992133;28;20527;-74
2022/08/23 03:52:16;;;;;;;5.20;3.20;;;21.00;96.10;;;;;;5000122;28;21043;-72
2022/08/23 03:54:43;;;;;;;8.80;3.13;;;21.10;96.10;;;;;;4987147;28;20457;-73
2022/08/23 03:57:11;;;;;;;8.40;2.93;;;21.00;96.20;;;;;;4998168;28;20431;-73
2022/08/23 03:59:41;;;;;;;6.47;2.67;;;21.00;96.10;;;;;;4997246;28;20447;-72
2022/08/23 04:02:08;;;;;;;4.20;3.80;;;21.00;96.30;;;;;;4987189;28;20814;-70
2022/08/23 04:04:35;;;;;;;5.60;3.07;;;21.00;96.30;;;;;;5002065;28;20549;-70
2022/08/23 04:07:02;;;;;;;7.10;3.97;;;20.90;96.40;;;;;;4992947;28;20462;-73
2022/08/23 04:09:29;;;;;;;7.40;3.67;;;20.90;96.50;;;;;;5005587;28;20444;-71
2022/08/23 04:11:56;;;;;;;5.17;2.90;;;20.80;96.60;;;;;;4996921;28;20479;-70
2022/08/23 04:14:27;;;;;;;5.43;3.37;;;20.80;96.60;;;;;;4991086;28;20477;-73
2022/08/23 04:16:53;;;;;;;6.03;3.60;;;20.80;96.60;;;;;;4996727;28;20508;-70
2022/08/23 04:19:21;;;;;;;7.47;3.27;;;20.80;96.60;;;;;;5003722;28;20442;-73
2022/08/23 04:21:50;;;;;;;9.90;3.93;;;20.80;96.80;;;;;;5005885;28;20831;-72
2022/08/23 04:24:18;;;;;;;10.67;4.93;;;20.80;96.90;;;;;;4994121;28;20544;-72
2022/08/23 04:26:45;;;;;;;4.80;2.83;;;20.70;97.00;;;;;;4993920;28;20456;-72
2022/08/23 04:29:15;;;;;;;9.03;4.47;;;20.70;97.10;;;;;;5000793;28;20939;-72
2022/08/23 04:31:44;;;;;;;7.57;4.80;;;20.60;97.20;;;;;;4993062;28;20462;-73
2022/08/23 04:34:12;;;;;;;5.03;3.30;;;20.60;97.30;;;;;;4993833;28;20467;-73
2022/08/23 04:36:42;;;;;;;6.10;3.50;;;20.60;97.30;;;;;;4999093;28;20445;-71
2022/08/23 04:39:09;;;;;;;7.30;3.87;;;20.60;97.20;;;;;;4992408;28;20853;-73
2022/08/23 04:44:21;;;;;;;7.90;4.83;;;20.70;97.10;;;;;;4991733;28;20966;-72
2022/08/23 04:46:49;;;;;;;4.40;3.30;;;20.70;97.10;;;;;;5003196;28;20440;-71
2022/08/23 04:49:17;;;;;;;12.27;4.30;;;20.60;97.00;;;;;;4999356;28;20434;-70
2022/08/23 04:51:44;;;;;;;9.50;3.20;;;20.80;97.00;;;;;;4991199;28;20440;-71
2022/08/23 04:54:11;;;;;;;16.00;5.23;;;20.80;97.00;;;;;;4998285;28;20451;-71
2022/08/23 04:56:39;;;;;;;5.80;3.57;;;20.90;96.90;;;;;;4997176;28;20516;-72
2022/08/23 04:59:06;;;;;;;5.90;4.00;;;20.90;96.80;;;;;;4999279;28;20469;-73
2022/08/23 05:01:34;;;;;;;5.90;3.27;;;20.90;96.70;;;;;;4996819;28;20846;-72
2022/08/23 05:04:04;;;;;;;9.50;4.00;;;20.90;96.70;;;;;;4996703;28;20485;-74
2022/08/23 05:06:31;;;;;;;10.93;4.20;;;20.90;96.70;;;;;;4993633;28;20444;-75
2022/08/23 05:08:58;;;;;;;7.80;4.20;;;21.00;96.60;;;;;;4996043;28;20555;-74
2022/08/23 05:11:25;;;;;;;8.90;4.33;;;21.00;96.60;;;;;;4996419;28;20910;-74
2022/08/23 05:13:52;;;;;;;8.47;4.60;;;21.00;96.50;;;;;;5001048;28;20468;-74
2022/08/23 05:16:19;;;;;;;7.27;3.70;;;21.10;96.30;;;;;;5001997;28;20447;-74
2022/08/23 05:18:46;;;;;;;9.57;4.27;;;21.10;96.40;;;;;;4990859;28;20517;-75
2022/08/23 05:21:16;;;;;;;6.20;4.27;;;21.10;96.60;;;;;;5001785;28;20491;-73
2022/08/23 05:23:44;;;;;;;8.03;4.13;;;21.10;96.60;;;;;;4997135;28;20835;-74
2022/08/23 05:26:15;;;;;;;9.27;4.87;;;21.20;96.30;;;;;;4999171;28;20445;-75
2022/08/23 05:28:44;;;;;;;7.73;4.03;;;21.20;96.20;;;;;;4989545;28;20431;-74
2022/08/23 05:31:13;;;;;;;9.00;5.77;;;21.20;96.20;;;;;;4995281;28;20440;-74
2022/08/23 05:33:41;;;;;;;5.77;4.10;;;21.20;96.10;;;;;;5004501;28;20509;-73
2022/08/23 05:36:10;;;;;;;10.23;4.97;;;21.30;96.10;;;;;;4996513;28;20797;-74
2022/08/23 05:38:40;;;;;;;11.50;4.90;;;21.30;96.10;;;;;;5004841;28;20447;-75
2022/08/23 05:41:07;;;;;;;11.27;5.00;;;21.30;95.80;;;;;;4992274;28;20444;-73
2022/08/23 05:43:35;;;;;;;15.03;4.27;;;21.60;95.70;;;;;;4993926;28;20890;-75
2022/08/23 05:46:04;;;;;;;8.30;3.50;;;22.20;95.00;;;;;;4987322;28;20532;-74
2022/08/23 05:48:39;;;;;;;5.60;4.10;;;22.90;93.60;;;;;;4989844;28;20464;-74
2022/08/23 05:51:12;;;;;;;10.60;4.57;;;23.70;92.40;;;;;;5004255;28;20437;-75
2022/08/23 05:53:42;;;;;;;13.57;4.67;;;24.40;91.10;;;;;;4993493;28;20842;-73
2022/08/23 05:56:13;;;;;;;6.97;4.00;;;25.10;90.20;;;;;;4994850;28;20443;-73
2022/08/23 05:58:40;;;;;;;4.87;3.10;;;25.60;87.70;;;;;;4988186;28;20452;-74
2022/08/23 06:01:08;;;;;;;6.93;3.80;;;26.10;86.10;;;;;;4999516;28;20934;-75
2022/08/23 06:03:35;;;;;;;7.10;3.70;;;26.40;84.50;;;;;;5001499;28;20529;-74
2022/08/23 06:06:03;;;;;;;6.10;3.63;;;26.80;83.30;;;;;;4997015;28;20473;-73
2022/08/23 06:08:30;;;;;;;8.47;3.03;;;27.00;82.60;;;;;;5006667;28;20445;-73
2022/08/23 06:11:03;;;;;;;3.60;3.17;;;27.10;81.10;;;;;;5006413;28;20493;-73
2022/08/23 06:13:39;;;;;;;8.23;3.20;;;27.60;80.40;;;;;;5010367;28;20491;-74
2022/08/23 06:16:07;;;;;;;10.30;3.00;;;28.00;79.00;;;;;;4999225;28;20480;-72
2022/08/23 06:18:34;;;;;;;6.57;2.70;;;28.60;77.40;;;;;;4996229;28;20523;-74
2022/08/23 06:21:02;;;;;;;3.23;2.90;;;28.70;76.70;;;;;;4994560;28;20436;-74
2022/08/23 06:23:31;;;;;;;7.93;3.67;;;28.70;74.90;;;;;;5003879;28;21041;-73
2022/08/23 06:25:59;;;;;;;3.43;3.07;;;28.30;75.40;;;;;;5003972;28;20437;-73
2022/08/23 06:28:29;;;;;;;2.87;2.33;;;28.60;75.50;;;;;;5001126;28;20981;-72
2022/08/23 06:30:56;;;;;;;3.17;2.87;;;28.90;74.40;;;;;;5001379;28;20539;-74
2022/08/23 06:33:25;;;;;;;5.90;2.83;;;28.60;74.80;;;;;;5002579;28;20468;-75
2022/08/23 06:36:03;;;;;;;4.73;3.00;;;28.10;76.00;;;;;;5006894;28;20442;-73
2022/08/23 06:38:31;;;;;;;5.03;3.07;;;27.50;77.40;;;;;;5002118;28;20892;-72
2022/08/23 06:41:02;;;;;;;5.77;3.13;;;27.30;78.40;;;;;;4998509;28;20784;-73
2022/08/23 06:43:31;;;;;;;6.67;2.77;;;26.60;80.00;;;;;;5007602;28;20639;-73
2022/08/23 06:46:08;;;;;;;6.33;2.70;;;26.70;80.60;;;;;;4994501;28;20437;-74
2022/08/23 06:48:34;;;;;;;10.60;3.50;;;27.40;79.00;;;;;;5001506;28;20810;-73
2022/08/23 06:51:02;;;;;;;4.23;2.97;;;28.40;76.90;;;;;;4998293;28;20998;-73
2022/08/23 06:53:29;;;;;;;4.50;2.60;;;29.40;74.30;;;;;;5004279;28;20868;-73
2022/08/23 06:55:57;;;;;;;5.13;2.70;;;29.60;73.10;;;;;;4999602;28;20489;-73
2022/08/23 06:58:24;;;;;;;7.13;3.50;;;30.20;71.40;;;;;;4995681;28;20440;-72
2022/08/23 07:00:52;;;;;;;12.20;4.10;;;30.30;70.30;;;;;;5002172;28;20808;-73
2022/08/23 07:03:19;;;;;;;6.53;3.73;;;30.80;69.70;;;;;;4991668;28;20853;-73
2022/08/23 07:05:46;;;;;;;8.80;3.90;;;30.90;68.40;;;;;;5001513;28;20445;-73
2022/08/23 07:08:13;;;;;;;11.53;3.70;;;31.20;68.00;;;;;;4996380;28;20527;-74
2022/08/23 07:10:42;;;;;;;8.07;3.00;;;31.10;67.30;;;;;;4999148;28;20503;-73
2022/08/23 07:13:09;;;;;;;4.80;3.13;;;31.70;66.50;;;;;;5002144;28;20492;-72
2022/08/23 07:15:36;;;;;;;5.50;3.10;;;32.10;65.00;;;;;;4995560;28;20982;-74
2022/08/23 07:18:05;;;;;;;5.93;3.30;;;32.30;64.30;;;;;;4995471;28;20443;-72
2022/08/23 07:20:32;;;;;;;5.00;2.60;;;31.40;64.70;;;;;;5006742;28;20988;-73
2022/08/23 07:23:00;;;;;;;5.60;2.87;;;30.60;66.70;;;;;;5005807;28;21025;-73
2022/08/23 07:25:27;;;;;;;4.30;2.70;;;30.00;68.70;;;;;;5000043;28;20433;-71
2022/08/23 07:27:54;;;;;;;5.20;2.70;;;29.60;69.10;;;;;;4989789;28;20852;-72
2022/08/23 07:30:21;;;;;;;4.57;2.70;;;29.30;70.40;;;;;;4993849;28;20488;-72
2022/08/23 07:32:48;;;;;;;5.60;2.50;;;29.10;70.80;;;;;;4996059;28;20824;-73
2022/08/23 07:35:17;;;;;;;4.50;3.03;;;28.90;71.00;;;;;;5000055;28;20519;-72
2022/08/23 07:37:44;;;;;;;6.30;3.07;;;28.50;71.70;;;;;;5007153;28;20439;-74
2022/08/23 07:40:12;;;;;;;5.13;2.80;;;28.20;72.50;;;;;;5002550;28;20444;-73
2022/08/23 07:42:38;;;;;;;7.93;3.40;;;27.90;72.70;;;;;;4995967;28;20527;-72
2022/08/23 07:45:07;;;;;;;6.03;3.80;;;27.70;73.80;;;;;;5004681;28;20474;-72
2022/08/23 07:47:34;;;;;;;5.87;3.30;;;27.60;74.40;;;;;;4998639;28;20543;-73
2022/08/23 07:50:01;;;;;;;4.47;2.87;;;27.80;74.30;;;;;;5008861;28;20506;-74
2022/08/23 07:52:30;;;;;;;10.80;5.00;;;27.80;74.80;;;;;;5000583;28;20444;-72
2022/08/23 07:54:57;;;;;;;3.97;2.83;;;27.80;74.40;;;;;;4998014;28;20467;-74
2022/08/23 07:57:24;;;;;;;5.33;2.97;;;27.70;74.50;;;;;;5007931;28;20498;-73
2022/08/23 07:59:51;;;;;;;5.43;2.60;;;27.70;74.80;;;;;;4994513;28;20438;-74
2022/08/23 08:02:18;;;;;;;4.00;2.70;;;27.80;74.60;;;;;;4978325;28;20525;-73
2022/08/23 08:04:46;;;;;;;3.60;2.43;;;28.00;74.10;;;;;;5001716;28;20579;-76
2022/08/23 08:07:14;;;;;;;7.03;2.77;;;28.40;72.60;;;;;;4996608;28;20504;-72
2022/08/23 08:09:43;;;;;;;10.97;3.50;;;29.30;71.30;;;;;;5012507;28;20443;-72
2022/08/23 08:12:10;;;;;;;3.57;2.10;;;30.00;69.60;;;;;;5027334;28;20523;-71
2022/08/23 08:14:38;;;;;;;3.47;3.10;;;30.70;67.80;;;;;;5010037;28;20460;-73
2022/08/23 08:17:05;;;;;;;4.50;2.40;;;31.50;65.80;;;;;;5000623;28;20445;-71
2022/08/23 08:19:32;;;;;;;6.70;2.93;;;32.60;64.30;;;;;;4995329;28;20907;-73
2022/08/23 08:21:59;;;;;;;6.37;3.20;;;33.80;61.20;;;;;;4992704;28;20875;-72
2022/08/23 08:24:26;;;;;;;4.17;2.60;;;34.80;58.80;;;;;;4997174;28;20568;-72
2022/08/23 08:26:55;;;;;;;7.60;3.33;;;34.60;57.20;;;;;;4995382;28;20440;-72
2022/08/23 08:29:23;;;;;;;5.07;2.60;;;34.30;56.60;;;;;;4994110;28;20465;-72
2022/08/23 08:31:51;;;;;;;3.97;2.10;;;34.20;56.50;;;;;;4992415;28;20440;-73
2022/08/23 08:34:18;;;;;;;6.63;3.10;;;34.30;56.80;;;;;;4995298;28;20456;-72
2022/08/23 08:36:48;;;;;;;6.23;3.20;;;34.30;56.20;;;;;;5004899;28;20535;-72
2022/08/23 08:39:19;;;;;;;6.07;2.10;;;34.60;56.10;;;;;;4996915;28;20499;-73
2022/08/23 08:42:02;;;;;;;4.13;2.70;;;34.50;55.20;;;;;;4998976;28;20511;-72
2022/08/23 08:44:37;;;;;;;4.30;2.50;;;34.70;55.30;;;;;;5000603;28;20488;-71
2022/08/23 08:47:10;;;;;;;10.43;3.60;;;34.90;55.10;;;;;;5004983;28;20497;-73
2022/08/23 08:49:42;;;;;;;5.27;2.90;;;35.10;54.70;;;;;;5001921;28;20530;-72
2022/08/23 08:52:17;;;;;;;5.63;2.80;;;35.00;54.20;;;;;;4997637;28;20526;-73
2022/08/23 08:54:47;;;;;;;3.80;2.70;;;34.60;54.50;;;;;;4983224;28;20520;-73
2022/08/23 08:57:18;;;;;;;7.93;2.77;;;34.60;54.70;;;;;;4993408;28;20531;-74
2022/08/23 08:59:54;;;;;;;6.23;3.03;;;34.90;54.10;;;;;;4996146;28;20455;-73
2022/08/23 09:02:22;;;;;;;4.83;3.00;;;34.90;54.70;;;;;;5000127;28;20519;-72
2022/08/23 09:04:49;;;;;;;3.17;2.53;;;34.70;53.90;;;;;;4989741;28;20481;-71
2022/08/23 09:07:25;;;;;;;7.40;4.53;;;34.30;53.80;;;;;;4993956;28;20539;-72
2022/08/23 09:10:07;;;;;;;8.83;3.10;;;34.60;53.80;;;;;;4986304;28;20445;-72
2022/08/23 09:12:43;;;;;;;5.53;4.27;;;34.30;53.80;;;;;;4992928;28;20441;-72
2022/08/23 09:15:19;;;;;;;3.63;2.50;;;34.30;54.50;;;;;;5002066;28;21540;-72
2022/08/23 09:17:51;;;;;;;5.33;2.67;;;34.50;54.60;;;;;;4995325;28;20441;-72
2022/08/23 09:20:22;;;;;;;5.30;2.90;;;34.60;54.40;;;;;;5000202;28;20444;-71
2022/08/23 09:23:06;;;;;;;4.00;2.80;;;34.70;53.00;;;;;;4988956;28;20459;-72
2022/08/23 09:25:33;;;;;;;3.40;2.70;;;34.80;52.80;;;;;;4996631;28;20487;-71
2022/08/23 09:28:07;;;;;;;4.13;2.50;;;34.60;53.10;;;;;;4999228;28;21195;-72
2022/08/23 09:30:51;;;;;;;4.20;2.90;;;34.80;52.70;;;;;;5008746;28;20497;-73
2022/08/23 09:33:20;;;;;;;4.07;3.37;;;35.30;52.10;;;;;;5008557;28;20958;-73
2022/08/23 09:36:05;;;;;;;2.87;2.00;;;34.60;51.50;;;;;;5002144;28;20448;-73
2022/08/23 09:38:33;;;;;;;4.77;2.80;;;34.80;52.30;;;;;;4996542;28;20475;-73
2022/08/23 09:41:18;;;;;;;4.97;2.57;;;34.40;52.10;;;;;;4995408;28;20445;-73
2022/08/23 09:43:47;;;;;;;7.27;3.53;;;34.20;52.80;;;;;;4991293;28;20846;-73
2022/08/23 09:46:25;;;;;;;6.80;2.80;;;34.40;53.30;;;;;;4992061;28;20537;-76
2022/08/23 09:48:54;;;;;;;6.10;2.80;;;33.30;52.70;;;;;;5000402;28;20482;-74
2022/08/23 09:51:25;;;;;;;6.73;2.80;;;33.60;53.30;;;;;;4993790;28;20808;-73
2022/08/23 09:54:07;;;;;;;4.90;2.53;;;33.70;53.60;;;;;;4996354;28;20538;-75
2022/08/23 09:56:39;;;;;;;4.90;2.47;;;34.00;52.20;;;;;;4999799;28;20505;-74
2022/08/23 09:59:34;;;;;;;4.40;2.80;;;34.20;51.80;;;;;;4990820;28;20440;-74
2022/08/23 10:02:01;;;;;;;5.93;3.00;;;34.30;51.60;;;;;;4993463;28;20503;-72
2022/08/23 10:04:40;;;;;;;3.47;2.20;;;34.10;51.90;;;;;;4993139;28;20568;-73
2022/08/23 10:07:24;;;;;;;4.37;2.40;;;34.20;51.20;;;;;;4989464;28;20510;-72
2022/08/23 10:09:51;;;;;;;3.80;2.67;;;34.30;51.00;;;;;;4994459;28;20459;-75
2022/08/23 10:12:19;;;;;;;4.17;1.97;;;34.20;51.00;;;;;;4995849;28;20442;-73
2022/08/23 10:14:47;;;;;;;4.17;2.50;;;34.30;50.80;;;;;;4990675;28;20504;-74
2022/08/23 10:17:35;;;;;;;7.60;2.80;;;34.20;50.80;;;;;;5004676;28;20955;-74
2022/08/23 10:20:16;;;;;;;6.63;2.40;;;34.10;50.80;;;;;;5010958;28;20456;-72
2022/08/23 10:22:45;;;;;;;3.80;2.40;;;33.90;50.20;;;;;;4991488;28;20478;-73
2022/08/23 10:25:21;;;;;;;2.80;2.40;;;33.50;50.60;;;;;;4991453;28;20570;-74
2022/08/23 10:30:53;;;;;;;4.27;2.47;;;33.60;50.80;;;;;;4999226;28;20442;-73
2022/08/23 10:33:24;;;;;;;4.80;2.50;;;33.70;50.30;;;;;;4998383;28;20562;-74
2022/08/23 10:36:02;;;;;;;10.23;2.50;;;33.60;50.60;;;;;;5002625;28;20440;-72
2022/08/23 10:38:39;;;;;;;3.97;2.13;;;33.70;51.00;;;;;;5005119;28;20535;-73
2022/08/23 10:41:24;;;;;;;5.47;2.10;;;33.20;50.50;;;;;;4982944;28;20448;-74
2022/08/23 10:44:00;;;;;;;3.50;2.40;;;32.80;50.80;;;;;;4991451;28;20540;-74
2022/08/23 10:46:32;;;;;;;5.90;2.10;;;32.20;51.50;;;;;;4986334;28;20482;-73
2022/08/23 10:49:02;;;;;;;4.70;2.17;;;31.70;51.30;;;;;;5000254;28;20431;-72
2022/08/23 10:51:33;;;;;;;4.60;2.03;;;31.40;51.80;;;;;;5002174;28;20476;-74
2022/08/23 10:54:05;;;;;;;3.43;2.10;;;31.10;52.50;;;;;;4996973;28;20469;-73
2022/08/23 10:56:33;;;;;;;3.73;2.17;;;30.90;53.10;;;;;;4995871;28;20463;-74
2022/08/23 10:59:04;;;;;;;3.60;2.00;;;30.90;52.50;;;;;;5000596;28;20444;-74
2022/08/23 11:01:39;;;;;;;4.37;2.07;;;30.70;52.80;;;;;;4998441;28;20485;-72
2022/08/23 11:04:16;;;;;;;4.20;2.03;;;30.40;53.00;;;;;;5004294;28;20555;-72
2022/08/23 11:06:47;;;;;;;3.90;2.30;;;30.40;53.50;;;;;;4988800;28;20508;-73
2022/08/23 11:09:52;;;;;;;3.73;2.30;;;30.50;51.90;;;;;;5005649;28;20848;-73
2022/08/23 11:12:49;;;;;;;6.07;2.70;;;30.40;52.00;;;;;;4995292;28;20488;-73
2022/08/23 11:15:27;;;;;;;2.63;1.87;;;30.40;52.30;;;;;;4995230;28;20529;-73
2022/08/23 11:17:59;;;;;;;4.17;2.20;;;30.40;51.30;;;;;;4998995;28;20844;-73
2022/08/23 11:20:56;;;;;;;2.10;1.70;;;30.30;52.00;;;;;;4998391;28;20834;-74
2022/08/23 11:23:47;;;;;;;3.30;1.70;;;30.30;52.00;;;;;;5001753;28;20510;-72
2022/08/23 11:27:07;;;;;;;3.70;1.63;;;30.10;52.00;;;;;;4982313;28;20601;-73
2022/08/23 11:29:37;;;;;;;5.33;1.97;;;29.80;52.10;;;;;;5005233;28;20474;-71
2022/08/23 11:32:22;;;;;;;2.50;1.97;;;29.80;52.60;;;;;;5001185;28;20538;-73
2022/08/23 11:34:59;;;;;;;13.30;2.20;;;29.80;52.10;;;;;;4995234;28;20487;-73
2022/08/23 11:37:48;;;;;;;6.77;1.60;;;29.80;52.20;;;;;;4996353;28;20464;-73
2022/08/23 11:40:56;;;;;;;3.13;1.97;;;29.80;51.80;;;;;;5009543;28;20482;-72
2022/08/23 11:43:31;;;;;;;2.40;1.43;;;29.90;51.50;;;;;;4997381;28;20472;-73
2022/08/23 11:46:14;;;;;;;6.13;2.33;;;30.00;51.50;;;;;;4999663;28;20480;-73
2022/08/23 11:48:44;;;;;;;3.13;1.70;;;30.00;51.80;;;;;;5001592;28;20451;-74
2022/08/23 11:51:28;;;;;;;3.13;1.80;;;30.10;52.30;;;;;;5004056;28;20464;-72
2022/08/23 11:54:14;;;;;;;4.60;1.57;;;30.10;51.90;;;;;;5000308;28;20463;-73
2022/08/23 11:56:59;;;;;;;2.70;1.77;;;30.20;51.80;;;;;;5008941;28;20476;-73
2022/08/23 11:59:52;;;;;;;3.33;1.80;;;30.10;51.90;;;;;;5002224;28;20524;-73
2022/08/23 12:02:48;;;;;;;3.00;1.87;;;30.00;51.70;;;;;;5006321;28;20497;-73
2022/08/23 12:05:31;;;;;;;2.33;1.37;;;30.10;51.40;;;;;;4992133;28;20480;-73
2022/08/23 12:08:44;;;;;;;2.47;1.40;;;30.10;51.50;;;;;;4996287;28;20448;-73
2022/08/23 12:11:12;;;;;;;7.30;2.90;;;29.90;51.70;;;;;;4999119;28;20790;-72
2022/08/23 12:14:05;;;;;;;2.10;1.33;;;29.80;51.90;;;;;;4996582;28;20493;-73
2022/08/23 12:16:38;;;;;;;4.03;1.70;;;29.80;52.10;;;;;;4999950;28;20504;-72
2022/08/23 12:19:10;;;;;;;1.63;1.30;;;30.00;51.70;;;;;;4998422;28;20499;-73
2022/08/23 12:21:47;;;;;;;5.60;1.80;;;29.70;52.10;;;;;;4991993;28;20470;-73
2022/08/23 12:24:25;;;;;;;4.90;1.80;;;29.70;52.50;;;;;;4998194;28;20818;-72
2022/08/23 12:27:02;;;;;;;3.77;1.40;;;29.80;52.60;;;;;;4991148;28;20839;-72
2022/08/23 12:29:49;;;;;;;2.90;1.47;;;29.70;52.60;;;;;;5004288;28;20938;-71
2022/08/23 12:32:24;;;;;;;3.10;1.50;;;29.70;52.90;;;;;;5001833;28;20477;-73
2022/08/23 12:35:03;;;;;;;4.13;1.30;;;29.70;53.00;;;;;;4996056;28;20467;-73
2022/08/23 12:37:37;;;;;;;6.43;1.60;;;29.70;53.00;;;;;;5001674;28;20452;-73
2022/08/23 12:40:11;;;;;;;4.30;1.57;;;29.80;53.10;;;;;;5020025;28;20439;-72
2022/08/23 12:42:39;;;;;;;2.80;1.70;;;29.80;53.10;;;;;;5010027;28;20531;-73
2022/08/23 12:45:12;;;;;;;3.47;1.43;;;29.80;52.60;;;;;;4989514;28;20483;-72
2022/08/23 12:47:42;;;;;;;4.20;2.17;;;29.80;52.60;;;;;;5001380;28;20441;-72
2022/08/23 12:50:20;;;;;;;3.17;1.57;;;29.90;52.80;;;;;;5007106;28;20462;-72
2022/08/23 12:52:58;;;;;;;5.60;1.90;;;30.00;53.10;;;;;;4991494;28;20476;-73
2022/08/23 12:55:32;;;;;;;6.93;2.00;;;30.00;53.10;;;;;;5003145;28;20519;-72
2022/08/23 12:58:00;;;;;;;4.40;1.70;;;30.10;52.70;;;;;;4996058;28;20530;-72
2022/08/23 13:00:30;;;;;;;4.73;1.57;;;30.10;52.90;;;;;;5001782;28;20796;-70
2022/08/23 13:03:01;;;;;;;4.47;1.80;;;30.10;52.30;;;;;;5001598;28;20483;-71
2022/08/23 13:05:37;;;;;;;4.13;1.77;;;30.00;52.50;;;;;;4994314;28;20524;-72
2022/08/23 13:08:08;;;;;;;3.03;1.40;;;30.10;52.60;;;;;;4993695;28;20475;-71
2022/08/23 13:10:40;;;;;;;2.77;1.50;;;30.10;52.70;;;;;;5003257;28;20464;-72
2022/08/23 13:13:11;;;;;;;2.10;1.27;;;30.00;52.80;;;;;;5004644;28;20552;-74
2022/08/23 13:15:46;;;;;;;2.70;1.60;;;29.90;52.50;;;;;;5001961;28;20448;-71
2022/08/23 13:18:31;;;;;;;2.27;1.40;;;30.00;52.70;;;;;;5002827;28;20449;-73
2022/08/23 13:21:30;;;;;;;2.70;1.53;;;30.00;52.90;;;;;;4990018;28;20536;-72